Time;durP1;ratioP1;P1;durP2;ratioP2;P2;SDS_P1;SDS_P2;PMS_P1;PMS_P2;Temp;Humidity;BMP_temperature;BMP_pressure;BME280_temperature;BME280_humidity;BME280_pressure;Samples;Min_cycle;Max_cycle;Signal;HPM_P1;HPM_P2
2023/04/04 00:00:01;;;;;;;3.37;2.67;;;2.40;99.90;;;;;;5055405;28;20498;-91
2023/04/04 00:02:26;;;;;;;3.07;2.73;;;1.30;99.90;;;;;;5054432;28;20432;-93
2023/04/04 00:04:52;;;;;;;3.13;2.83;;;1.30;99.90;;;;;;5057869;28;20388;-91
2023/04/04 00:07:18;;;;;;;4.10;3.10;;;1.50;99.90;;;;;;5064070;28;20397;-92
2023/04/04 00:09:44;;;;;;;3.70;3.17;;;1.30;99.90;;;;;;5057954;28;20386;-92
2023/04/04 00:12:09;;;;;;;4.75;3.25;;;1.20;99.90;;;;;;5057777;28;20481;-92
2023/04/04 00:14:35;;;;;;;3.55;2.90;;;1.10;99.90;;;;;;5054857;28;20489;-92
2023/04/04 00:17:00;;;;;;;4.10;3.20;;;1.10;99.90;;;;;;5052998;28;20401;-92
2023/04/04 00:19:26;;;;;;;4.00;2.80;;;1.10;99.90;;;;;;5053857;28;20397;-91
2023/04/04 00:21:51;;;;;;;5.90;3.10;;;1.30;99.90;;;;;;5058218;28;20428;-91
2023/04/04 00:24:17;;;;;;;3.78;2.92;;;1.10;99.90;;;;;;5060939;28;20386;-91
2023/04/04 00:26:42;;;;;;;3.10;2.80;;;1.20;99.90;;;;;;5057132;28;20389;-91
2023/04/04 00:29:08;;;;;;;3.20;2.90;;;1.00;99.90;;;;;;5061467;28;20378;-90
2023/04/04 00:31:34;;;;;;;3.95;3.15;;;1.20;99.90;;;;;;5063440;28;20389;-92
2023/04/04 00:33:59;;;;;;;3.40;3.00;;;2.30;99.90;;;;;;5062824;28;20389;-91
2023/04/04 00:36:25;;;;;;;3.92;2.80;;;1.10;99.90;;;;;;5057518;28;20408;-91
2023/04/04 00:38:51;;;;;;;4.50;3.60;;;1.10;99.90;;;;;;5060365;28;20381;-91
2023/04/04 00:41:28;;;;;;;4.18;3.65;;;1.20;99.90;;;;;;5061709;28;20428;-90
2023/04/04 00:43:55;;;;;;;3.55;3.17;;;1.40;99.90;;;;;;5061341;28;20416;-91
2023/04/04 00:46:22;;;;;;;3.40;3.10;;;1.10;99.90;;;;;;5057653;28;20730;-90
2023/04/04 00:48:48;;;;;;;3.83;3.53;;;1.20;99.90;;;;;;5064416;28;20415;-91
2023/04/04 00:51:14;;;;;;;3.90;3.50;;;1.30;99.90;;;;;;5073408;28;20486;-91
2023/04/04 00:53:44;;;;;;;3.92;3.53;;;1.40;99.90;;;;;;5062922;28;20383;-91
2023/04/04 00:56:10;;;;;;;5.00;3.50;;;1.40;99.90;;;;;;5070855;28;20441;-90
2023/04/04 00:58:35;;;;;;;3.50;3.20;;;1.40;99.90;;;;;;5075505;28;21020;-89
2023/04/04 01:01:01;;;;;;;4.45;3.83;;;1.40;99.90;;;;;;5067295;28;20396;-92
2023/04/04 01:03:27;;;;;;;4.97;3.70;;;1.40;99.90;;;;;;5066178;28;20397;-91
2023/04/04 01:05:54;;;;;;;5.50;3.50;;;1.30;99.90;;;;;;5062466;28;20385;-91
2023/04/04 01:08:24;;;;;;;3.78;3.38;;;1.50;99.90;;;;;;5063022;28;20879;-91
2023/04/04 01:10:50;;;;;;;3.88;3.58;;;1.40;99.90;;;;;;5076485;28;20404;-91
2023/04/04 01:13:15;;;;;;;3.80;3.50;;;1.30;99.90;;;;;;5078396;28;20408;-91
2023/04/04 01:15:41;;;;;;;4.97;3.60;;;1.20;99.90;;;;;;5078256;28;20386;-89
2023/04/04 01:18:10;;;;;;;3.50;3.00;;;1.40;99.90;;;;;;5078225;28;20397;-89
2023/04/04 01:20:43;;;;;;;4.18;3.78;;;1.40;99.90;;;;;;5078554;28;20385;-90
2023/04/04 01:23:09;;;;;;;3.50;3.20;;;1.40;99.90;;;;;;5078726;28;20451;-90
2023/04/04 01:25:35;;;;;;;3.70;3.10;;;1.50;99.90;;;;;;5077622;28;20420;-90
2023/04/04 01:28:01;;;;;;;3.87;2.70;;;1.50;99.90;;;;;;5077329;28;20386;-90
2023/04/04 01:30:33;;;;;;;3.40;2.40;;;2.00;99.90;;;;;;5064148;28;20448;-91
2023/04/04 01:33:15;;;;;;;2.50;2.30;;;2.10;94.50;;;;;;5060062;28;20887;-90
2023/04/04 01:36:00;;;;;;;2.83;2.10;;;2.40;87.90;;;;;;5063084;28;20422;-91
2023/04/04 01:39:05;;;;;;;3.30;2.30;;;2.50;94.50;;;;;;5058496;28;20448;-91
2023/04/04 01:41:34;;;;;;;2.50;2.30;;;2.50;85.00;;;;;;5044723;28;20397;-91
2023/04/04 01:44:00;;;;;;;3.47;2.50;;;2.50;62.40;;;;;;5058955;28;20731;-92
2023/04/04 01:46:26;;;;;;;2.25;1.90;;;2.50;68.10;;;;;;5056164;28;20389;-91
2023/04/04 01:48:52;;;;;;;2.95;2.20;;;2.70;64.60;;;;;;5099011;22;20426;-86
2023/04/04 01:51:18;;;;;;;2.67;2.10;;;2.70;58.00;;;;;;5077631;28;20454;-86
2023/04/04 01:53:43;;;;;;;2.50;2.30;;;2.70;54.00;;;;;;5082437;28;20406;-86
2023/04/04 01:56:09;;;;;;;2.80;2.17;;;2.80;54.00;;;;;;5099276;28;20402;-86
2023/04/04 01:58:34;;;;;;;2.50;2.08;;;2.70;52.40;;;;;;5094635;28;20411;-86
2023/04/04 02:01:00;;;;;;;3.20;2.50;;;2.80;50.70;;;;;;5077184;28;20374;-86
2023/04/04 02:03:25;;;;;;;2.63;2.35;;;2.80;50.60;;;;;;5076090;28;20872;-86
2023/04/04 02:05:51;;;;;;;3.40;2.25;;;2.70;49.40;;;;;;5074427;28;20390;-85
2023/04/04 02:08:17;;;;;;;2.70;2.50;;;2.80;47.40;;;;;;5076151;28;20441;-86
2023/04/04 02:10:42;;;;;;;3.20;2.80;;;2.80;47.90;;;;;;5075750;28;20397;-86
2023/04/04 02:13:08;;;;;;;3.63;2.37;;;2.80;46.30;;;;;;5075653;28;20534;-86
2023/04/04 02:15:34;;;;;;;3.40;2.30;;;2.80;49.90;;;;;;5093726;28;20389;-86
2023/04/04 02:18:00;;;;;;;2.83;2.40;;;2.80;45.00;;;;;;5076231;28;20474;-86
2023/04/04 02:20:26;;;;;;;2.40;2.20;;;2.80;43.30;;;;;;5075786;28;20542;-86
2023/04/04 02:22:53;;;;;;;2.40;2.20;;;2.80;43.80;;;;;;5075802;28;20390;-85
2023/04/04 02:25:19;;;;;;;3.47;2.43;;;2.80;43.40;;;;;;5093675;28;20413;-86
2023/04/04 02:27:45;;;;;;;2.53;2.33;;;2.70;45.10;;;;;;5075167;28;20381;-86
2023/04/04 02:30:11;;;;;;;2.50;2.30;;;2.60;45.10;;;;;;5075902;28;20776;-86
2023/04/04 02:32:37;;;;;;;3.40;2.90;;;2.60;44.00;;;;;;5075445;28;20386;-86
2023/04/04 02:35:03;;;;;;;2.87;2.57;;;2.70;42.70;;;;;;5075258;28;20400;-87
2023/04/04 02:37:29;;;;;;;2.90;2.10;;;2.70;42.60;;;;;;5093514;28;20459;-86
2023/04/04 02:39:54;;;;;;;2.50;2.30;;;2.70;41.60;;;;;;5075912;28;20423;-85
2023/04/04 02:42:20;;;;;;;3.20;2.53;;;2.60;41.50;;;;;;5075592;28;20520;-86
2023/04/04 02:44:45;;;;;;;2.53;2.33;;;2.50;43.10;;;;;;5094283;28;20390;-86
2023/04/04 02:47:11;;;;;;;2.80;2.47;;;2.50;44.90;;;;;;5094465;28;20390;-83
2023/04/04 02:49:37;;;;;;;2.50;2.30;;;2.60;41.20;;;;;;5099894;28;20390;-83
2023/04/04 02:52:02;;;;;;;2.80;2.50;;;2.60;42.50;;;;;;5095572;28;20393;-85
2023/04/04 02:54:28;;;;;;;3.70;2.40;;;2.50;41.10;;;;;;5076891;28;20417;-85
2023/04/04 02:56:54;;;;;;;2.88;2.50;;;2.50;39.30;;;;;;5077275;28;20907;-86
2023/04/04 02:59:20;;;;;;;2.55;2.35;;;2.60;39.00;;;;;;5075694;28;20477;-86
2023/04/04 03:01:45;;;;;;;2.90;2.70;;;2.50;40.10;;;;;;5075676;28;20937;-86
2023/04/04 03:04:12;;;;;;;2.93;2.53;;;2.60;36.90;;;;;;5075826;28;20378;-85
2023/04/04 03:06:39;;;;;;;2.55;2.20;;;2.60;37.10;;;;;;5093816;28;20417;-86
2023/04/04 03:09:05;;;;;;;4.05;2.33;;;2.60;35.30;;;;;;5075692;28;20782;-85
2023/04/04 03:11:30;;;;;;;2.85;2.20;;;2.60;36.00;;;;;;5093899;28;20378;-86
2023/04/04 03:13:56;;;;;;;3.10;2.20;;;2.50;36.30;;;;;;5076061;28;20490;-85
2023/04/04 03:16:22;;;;;;;2.70;2.50;;;2.50;34.30;;;;;;5093966;28;20887;-86
2023/04/04 03:18:48;;;;;;;2.40;2.10;;;2.50;35.50;;;;;;5075762;28;20444;-85
2023/04/04 03:21:13;;;;;;;2.60;2.40;;;2.50;34.60;;;;;;5083700;28;20398;-85
2023/04/04 03:23:39;;;;;;;5.07;2.50;;;2.50;35.50;;;;;;5095498;28;20378;-85
2023/04/04 03:26:05;;;;;;;3.58;2.50;;;2.40;36.80;;;;;;5075399;28;20469;-86
2023/04/04 03:28:30;;;;;;;3.03;2.50;;;2.40;34.70;;;;;;5093138;28;20510;-86
2023/04/04 03:30:56;;;;;;;3.40;2.50;;;2.30;36.40;;;;;;5074942;28;20458;-85
2023/04/04 03:33:22;;;;;;;2.73;2.07;;;2.30;35.70;;;;;;5076306;28;20491;-86
2023/04/04 03:35:48;;;;;;;3.90;2.10;;;2.30;39.00;;;;;;5092683;28;20393;-85
2023/04/04 03:38:13;;;;;;;2.63;2.30;;;2.30;36.20;;;;;;5094231;28;20381;-86
2023/04/04 03:40:40;;;;;;;2.70;2.40;;;2.20;36.70;;;;;;5075168;28;20393;-86
2023/04/04 03:43:06;;;;;;;2.85;2.30;;;2.30;35.20;;;;;;5094263;28;20455;-86
2023/04/04 03:45:35;;;;;;;2.40;2.20;;;2.20;35.80;;;;;;5060998;28;20415;-85
2023/04/04 03:48:01;;;;;;;2.50;2.15;;;2.20;34.20;;;;;;5074333;28;20399;-83
2023/04/04 03:50:26;;;;;;;2.38;2.17;;;2.20;34.50;;;;;;5057033;28;20387;-85
2023/04/04 03:52:52;;;;;;;3.00;2.50;;;2.20;33.00;;;;;;5057132;28;20388;-85
2023/04/04 03:55:17;;;;;;;3.77;2.60;;;2.20;34.00;;;;;;5057665;28;20394;-85
2023/04/04 03:57:43;;;;;;;3.20;2.30;;;2.20;32.40;;;;;;5068595;28;20483;-84
2023/04/04 04:00:10;;;;;;;2.43;2.23;;;2.10;37.10;;;;;;5073929;28;20372;-84
2023/04/04 04:02:35;;;;;;;3.30;2.15;;;2.10;33.50;;;;;;5073069;28;20414;-85
2023/04/04 04:05:01;;;;;;;3.57;2.80;;;2.20;33.90;;;;;;5071935;28;20383;-85
2023/04/04 04:07:26;;;;;;;2.75;2.45;;;2.20;33.90;;;;;;5062877;28;20460;-85
2023/04/04 04:09:52;;;;;;;5.43;2.75;;;2.10;35.20;;;;;;5056214;28;20380;-86
2023/04/04 04:12:18;;;;;;;2.60;2.40;;;2.00;35.00;;;;;;5072375;28;20379;-85
2023/04/04 04:14:44;;;;;;;3.33;2.80;;;2.10;34.40;;;;;;5071852;28;20384;-86
2023/04/04 04:17:09;;;;;;;2.90;2.60;;;2.50;33.80;;;;;;5073082;28;20452;-85
2023/04/04 04:19:35;;;;;;;3.57;2.27;;;2.00;36.10;;;;;;5073038;28;20595;-85
2023/04/04 04:22:00;;;;;;;3.30;2.42;;;2.00;35.10;;;;;;5056173;28;20434;-85
2023/04/04 04:24:26;;;;;;;3.93;2.50;;;2.00;35.20;;;;;;5073512;28;20440;-86
2023/04/04 04:26:51;;;;;;;2.70;2.20;;;1.90;38.20;;;;;;5072999;28;20399;-85
2023/04/04 04:29:17;;;;;;;2.70;2.10;;;2.00;35.20;;;;;;5057970;28;20375;-84
2023/04/04 04:31:42;;;;;;;2.60;2.20;;;1.90;44.30;;;;;;5076486;28;20398;-85
2023/04/04 04:34:08;;;;;;;4.17;2.70;;;2.00;37.00;;;;;;5059409;28;20399;-85
2023/04/04 04:36:34;;;;;;;3.33;2.70;;;1.90;37.50;;;;;;5076333;28;20384;-85
2023/04/04 04:39:00;;;;;;;2.47;2.28;;;1.80;41.00;;;;;;5058915;28;20398;-84
2023/04/04 04:41:26;;;;;;;3.17;2.47;;;1.80;40.90;;;;;;5059764;28;20773;-85
2023/04/04 04:43:52;;;;;;;3.03;2.67;;;1.70;44.40;;;;;;5058989;28;20391;-84
2023/04/04 04:46:17;;;;;;;4.13;3.20;;;1.40;54.80;;;;;;5078894;28;20382;-84
2023/04/04 04:48:43;;;;;;;3.50;3.20;;;1.40;63.00;;;;;;5076657;28;21024;-85
2023/04/04 04:51:09;;;;;;;3.00;2.70;;;1.20;57.10;;;;;;5078698;28;20891;-85
2023/04/04 04:53:35;;;;;;;3.60;2.65;;;1.10;66.80;;;;;;5098594;28;20394;-86
2023/04/04 04:56:01;;;;;;;3.30;2.37;;;1.10;78.00;;;;;;5080435;28;20895;-85
2023/04/04 04:58:26;;;;;;;3.60;2.70;;;1.10;95.70;;;;;;5079339;28;20382;-86
2023/04/04 05:00:56;;;;;;;3.85;2.92;;;1.20;96.20;;;;;;5078223;28;20390;-84
2023/04/04 05:03:22;;;;;;;3.33;3.03;;;1.10;82.10;;;;;;5079272;28;20446;-86
2023/04/04 05:05:47;;;;;;;3.40;3.10;;;1.00;91.70;;;;;;5078383;28;20878;-86
2023/04/04 05:08:14;;;;;;;2.90;2.50;;;1.90;1.00;;;;;;5077996;28;20390;-86
2023/04/04 05:10:40;;;;;;;3.55;3.10;;;0.90;1.00;;;;;;5095372;28;20392;-86
2023/04/04 05:13:05;;;;;;;5.83;3.13;;;0.90;1.00;;;;;;5076902;28;20382;-85
2023/04/04 05:15:31;;;;;;;3.03;2.73;;;0.90;1.00;;;;;;5076505;28;20399;-85
2023/04/04 05:17:57;;;;;;;2.90;2.53;;;0.90;1.00;;;;;;5095248;28;20416;-85
2023/04/04 05:20:22;;;;;;;3.28;2.50;;;0.80;99.90;;;;;;5095429;28;20386;-86
2023/04/04 05:22:48;;;;;;;2.97;2.55;;;0.80;99.90;;;;;;5077244;28;20929;-86
2023/04/04 05:25:14;;;;;;;2.72;2.38;;;0.90;1.00;;;;;;5077027;28;20380;-85
2023/04/04 05:27:40;;;;;;;3.87;2.50;;;0.80;1.00;;;;;;5076285;28;20430;-84
2023/04/04 05:30:06;;;;;;;4.03;2.78;;;0.80;1.00;;;;;;5094742;28;20421;-84
2023/04/04 05:32:32;;;;;;;3.35;3.05;;;0.60;99.90;;;;;;5094126;28;20887;-85
2023/04/04 05:34:58;;;;;;;3.80;2.67;;;0.70;1.00;;;;;;5072770;28;20470;-84
2023/04/04 05:37:24;;;;;;;3.20;2.90;;;0.90;87.50;;;;;;5095369;28;20410;-84
2023/04/04 05:40:15;;;;;;;3.10;2.50;;;0.90;1.00;;;;;;5077367;28;20929;-87
2023/04/04 05:42:41;;;;;;;3.10;2.80;;;1.00;99.90;;;;;;5060023;28;20402;-86
2023/04/04 05:45:07;;;;;;;4.65;3.05;;;1.00;99.90;;;;;;5065655;28;20404;-87
2023/04/04 05:47:33;;;;;;;3.20;2.90;;;1.00;96.60;;;;;;5076775;28;20399;-85
2023/04/04 05:49:59;;;;;;;3.65;2.80;;;1.10;77.50;;;;;;5059049;28;20387;-85
2023/04/04 05:52:24;;;;;;;4.57;3.10;;;1.40;59.30;;;;;;5062818;28;20384;-88
2023/04/04 05:54:50;;;;;;;2.65;2.42;;;2.20;49.90;;;;;;5058598;28;20422;-86
2023/04/04 05:57:15;;;;;;;3.45;2.60;;;1.90;44.70;;;;;;5057867;28;20467;-85
2023/04/04 05:59:41;;;;;;;3.35;2.95;;;1.90;44.80;;;;;;5080516;28;20398;-85
2023/04/04 06:02:07;;;;;;;2.80;2.50;;;1.90;43.00;;;;;;5093705;28;20398;-86
2023/04/04 06:04:33;;;;;;;3.10;2.80;;;2.00;44.20;;;;;;5096498;28;20401;-86
2023/04/04 06:06:59;;;;;;;3.33;2.85;;;2.00;44.60;;;;;;5090437;28;20390;-86
2023/04/04 06:09:26;;;;;;;3.40;2.65;;;2.10;40.40;;;;;;5093651;28;20449;-87
2023/04/04 06:11:51;;;;;;;2.72;2.50;;;2.10;40.50;;;;;;5093996;28;20393;-85
2023/04/04 06:14:17;;;;;;;2.55;2.25;;;2.20;40.80;;;;;;5093672;28;20704;-86
2023/04/04 06:16:42;;;;;;;3.00;2.70;;;2.10;39.40;;;;;;5093112;28;20759;-88
2023/04/04 06:19:08;;;;;;;3.20;2.80;;;2.30;41.60;;;;;;5095581;28;20382;-85
2023/04/04 06:21:34;;;;;;;3.28;2.50;;;2.30;38.70;;;;;;5093766;28;20462;-87
2023/04/04 06:23:59;;;;;;;2.92;2.60;;;2.30;35.80;;;;;;5094217;28;20807;-87
2023/04/04 06:26:25;;;;;;;3.72;2.50;;;2.40;35.10;;;;;;5092950;28;20382;-86
2023/04/04 06:28:51;;;;;;;3.00;2.70;;;2.50;34.60;;;;;;5095269;28;20487;-86
2023/04/04 06:31:17;;;;;;;2.60;2.40;;;2.50;34.10;;;;;;5093711;28;20405;-86
2023/04/04 06:33:42;;;;;;;2.60;2.40;;;2.50;34.90;;;;;;5094755;28;20390;-85
2023/04/04 06:36:08;;;;;;;3.03;2.53;;;2.50;33.70;;;;;;5094708;28;20374;-86
2023/04/04 06:38:34;;;;;;;3.85;2.70;;;2.50;34.60;;;;;;5093617;28;20397;-87
2023/04/04 06:40:59;;;;;;;3.10;2.65;;;2.50;37.30;;;;;;5096961;28;20386;-86
2023/04/04 06:43:25;;;;;;;3.22;2.30;;;2.70;39.90;;;;;;5105325;28;20407;-84
2023/04/04 06:45:51;;;;;;;2.73;2.50;;;4.40;36.70;;;;;;5116836;28;20474;-81
2023/04/04 06:48:16;;;;;;;3.43;2.80;;;2.80;36.10;;;;;;5113384;28;20449;-84
2023/04/04 06:50:42;;;;;;;2.70;2.30;;;2.80;32.30;;;;;;5078090;28;20422;-84
2023/04/04 06:53:08;;;;;;;4.47;2.80;;;2.90;32.60;;;;;;5079741;28;20457;-84
2023/04/04 06:55:34;;;;;;;2.92;2.58;;;2.90;31.40;;;;;;5078205;28;20378;-84
2023/04/04 06:58:00;;;;;;;2.70;2.50;;;3.00;34.50;;;;;;5078879;28;20387;-83
2023/04/04 07:00:25;;;;;;;2.40;2.20;;;3.50;31.90;;;;;;5097163;28;20386;-83
2023/04/04 07:02:58;;;;;;;3.83;2.50;;;3.20;28.40;;;;;;5097666;28;20436;-84
2023/04/04 07:05:23;;;;;;;3.47;2.50;;;3.10;30.50;;;;;;5078691;28;20887;-84
2023/04/04 07:07:55;;;;;;;3.03;2.72;;;3.10;28.40;;;;;;5096478;28;20427;-82
2023/04/04 07:10:22;;;;;;;3.35;2.60;;;3.20;27.80;;;;;;5078803;28;20790;-82
2023/04/04 07:12:48;;;;;;;2.40;2.20;;;3.30;27.80;;;;;;5078522;28;20389;-83
2023/04/04 07:15:14;;;;;;;3.40;2.50;;;3.30;26.60;;;;;;5078136;28;20382;-82
2023/04/04 07:17:40;;;;;;;4.85;2.30;;;3.30;27.20;;;;;;5077436;28;20390;-83
2023/04/04 07:20:06;;;;;;;3.22;2.28;;;3.40;25.70;;;;;;5095841;28;20508;-82
2023/04/04 07:22:35;;;;;;;3.83;2.65;;;3.40;25.40;;;;;;5096160;28;20401;-83
2023/04/04 07:25:01;;;;;;;3.40;2.50;;;3.40;25.40;;;;;;5096087;28;20748;-83
2023/04/04 07:27:26;;;;;;;3.27;2.50;;;3.70;25.90;;;;;;5078182;28;20378;-84
2023/04/04 07:29:52;;;;;;;4.90;2.80;;;3.60;25.00;;;;;;5096460;28;20384;-83
2023/04/04 07:32:17;;;;;;;2.77;2.43;;;3.60;24.00;;;;;;5077642;28;20437;-84
2023/04/04 07:34:44;;;;;;;2.67;2.47;;;3.70;24.70;;;;;;5096601;28;20378;-83
2023/04/04 07:37:09;;;;;;;3.70;2.60;;;3.70;25.10;;;;;;5094844;28;20385;-83
2023/04/04 07:39:35;;;;;;;2.67;2.47;;;3.80;23.90;;;;;;5094279;28;20733;-83
2023/04/04 07:42:01;;;;;;;3.77;2.73;;;3.90;22.30;;;;;;5095485;28;20772;-84
2023/04/04 07:44:26;;;;;;;3.10;2.40;;;4.00;21.70;;;;;;5089599;28;20383;-82
2023/04/04 07:46:52;;;;;;;3.10;2.50;;;4.00;22.80;;;;;;5074349;28;20738;-81
2023/04/04 07:49:17;;;;;;;2.43;2.23;;;4.20;22.90;;;;;;5075080;28;20815;-84
2023/04/04 07:51:43;;;;;;;4.00;2.20;;;4.10;21.40;;;;;;5074346;28;20403;-83
2023/04/04 07:54:09;;;;;;;3.50;2.60;;;4.20;21.00;;;;;;5074363;28;20383;-83
2023/04/04 07:56:35;;;;;;;3.33;2.55;;;4.20;20.40;;;;;;5074467;28;20429;-83
2023/04/04 07:59:00;;;;;;;2.78;2.50;;;4.30;20.70;;;;;;5074111;28;20391;-82
2023/04/04 08:01:26;;;;;;;3.50;2.50;;;4.50;20.80;;;;;;5074191;28;20445;-82
2023/04/04 08:03:52;;;;;;;3.00;2.13;;;4.50;19.60;;;;;;5073642;28;20388;-84
2023/04/04 08:06:17;;;;;;;2.60;2.35;;;4.60;19.30;;;;;;5087151;22;20493;-86
2023/04/04 08:08:45;;;;;;;2.87;2.60;;;4.60;19.50;;;;;;5070890;28;20371;-86
2023/04/04 08:11:11;;;;;;;2.40;2.00;;;4.60;17.70;;;;;;5069897;28;20474;-85
2023/04/04 08:13:37;;;;;;;3.80;2.40;;;5.10;18.10;;;;;;5071236;28;20447;-86
2023/04/04 08:16:03;;;;;;;3.65;2.78;;;4.90;16.70;;;;;;5069928;28;20371;-85
2023/04/04 08:18:29;;;;;;;2.60;2.40;;;4.90;15.60;;;;;;5069717;28;20497;-86
2023/04/04 08:20:54;;;;;;;2.80;2.40;;;5.00;15.50;;;;;;5070527;28;20382;-86
2023/04/04 08:23:20;;;;;;;3.57;2.30;;;5.00;15.20;;;;;;5069448;28;20497;-85
2023/04/04 08:25:46;;;;;;;3.00;2.40;;;5.10;15.20;;;;;;5069669;28;20392;-85
2023/04/04 08:28:12;;;;;;;2.70;2.10;;;5.20;13.70;;;;;;5063624;28;20388;-85
2023/04/04 08:30:38;;;;;;;3.50;2.70;;;5.30;14.40;;;;;;5067070;28;20756;-87
2023/04/04 08:33:03;;;;;;;3.07;2.60;;;5.30;14.50;;;;;;5050883;28;20389;-86
2023/04/04 08:35:29;;;;;;;3.17;2.20;;;5.30;14.40;;;;;;5050629;28;20385;-86
2023/04/04 08:37:56;;;;;;;2.50;2.30;;;5.20;14.20;;;;;;5064393;28;20424;-85
2023/04/04 08:40:21;;;;;;;2.40;2.20;;;5.50;13.70;;;;;;5049521;28;20736;-86
2023/04/04 08:42:50;;;;;;;3.47;2.50;;;5.50;11.90;;;;;;5049213;28;20404;-86
2023/04/04 08:45:20;;;;;;;3.42;2.55;;;5.50;12.70;;;;;;5048550;28;20457;-87
2023/04/04 08:47:49;;;;;;;2.95;2.10;;;5.70;12.50;;;;;;5050123;28;20392;-85
2023/04/04 08:50:15;;;;;;;2.83;2.38;;;5.70;11.10;;;;;;5051527;28;20795;-85
2023/04/04 08:52:42;;;;;;;4.07;2.00;;;5.80;12.20;;;;;;5057583;28;20952;-86
2023/04/04 08:55:08;;;;;;;3.47;2.42;;;5.90;12.70;;;;;;5058024;28;20385;-87
2023/04/04 08:57:34;;;;;;;2.30;2.10;;;6.10;13.10;;;;;;5049256;28;20914;-87
2023/04/04 09:00:04;;;;;;;2.55;2.15;;;6.00;11.40;;;;;;5049326;28;20882;-87
2023/04/04 09:02:45;;;;;;;3.08;2.47;;;6.00;10.70;;;;;;5053578;28;20483;-86
2023/04/04 09:05:12;;;;;;;2.33;2.10;;;6.20;10.00;;;;;;5062889;28;20447;-87
2023/04/04 09:07:39;;;;;;;2.60;2.20;;;6.10;11.20;;;;;;5050564;28;20405;-87
2023/04/04 09:10:08;;;;;;;3.00;2.50;;;6.20;10.20;;;;;;5050785;28;20389;-86
2023/04/04 09:12:36;;;;;;;2.95;2.17;;;6.30;10.80;;;;;;5061482;28;21133;-86
2023/04/04 09:15:02;;;;;;;3.00;2.50;;;6.30;9.70;;;;;;5054689;28;20401;-87
2023/04/04 09:17:28;;;;;;;2.05;1.85;;;6.50;11.50;;;;;;5058220;28;20492;-86
2023/04/04 09:19:54;;;;;;;2.80;2.25;;;6.40;7.70;;;;;;5072694;28;20430;-88
2023/04/04 09:22:19;;;;;;;2.40;2.20;;;6.60;10.90;;;;;;5058397;28;20935;-87
2023/04/04 09:24:47;;;;;;;2.60;2.40;;;6.80;9.60;;;;;;5052791;28;20386;-87
2023/04/04 09:27:15;;;;;;;2.80;2.42;;;6.80;8.90;;;;;;5067282;28;20477;-87
2023/04/04 09:29:41;;;;;;;2.93;2.37;;;6.70;8.30;;;;;;5061730;28;20386;-87
2023/04/04 09:32:13;;;;;;;2.30;2.10;;;6.80;7.90;;;;;;5073951;28;20405;-87
2023/04/04 09:34:40;;;;;;;4.05;2.30;;;6.80;6.60;;;;;;5072550;28;20395;-87
2023/04/04 09:37:06;;;;;;;2.40;2.20;;;6.90;9.60;;;;;;5072259;28;20384;-88
2023/04/04 09:39:33;;;;;;;2.67;2.17;;;6.90;9.30;;;;;;5060295;28;20387;-86
2023/04/04 09:42:00;;;;;;;2.92;2.20;;;7.20;8.40;;;;;;5076290;28;20439;-87
2023/04/04 09:44:28;;;;;;;3.08;2.25;;;7.30;8.70;;;;;;5068024;28;20389;-87
2023/04/04 09:47:34;;;;;;;2.95;2.20;;;7.30;7.20;;;;;;5053300;28;20472;-87
2023/04/04 09:50:00;;;;;;;4.78;2.75;;;7.30;6.50;;;;;;5039887;28;20401;-86
2023/04/04 09:52:26;;;;;;;3.00;2.08;;;7.50;5.40;;;;;;5062917;28;20384;-87
2023/04/04 09:54:59;;;;;;;3.58;2.40;;;7.30;6.50;;;;;;5073311;28;20384;-86
2023/04/04 09:57:29;;;;;;;3.00;2.30;;;7.50;6.80;;;;;;5069050;28;20388;-87
2023/04/04 09:59:59;;;;;;;3.10;2.20;;;7.50;5.50;;;;;;5058949;28;20906;-87
2023/04/04 10:02:25;;;;;;;2.78;1.80;;;7.70;6.20;;;;;;5062212;28;20401;-87
2023/04/04 10:04:52;;;;;;;2.10;1.80;;;7.60;4.80;;;;;;5066495;28;20430;-87
2023/04/04 10:07:18;;;;;;;2.00;1.80;;;7.50;7.70;;;;;;5059105;28;20901;-87
2023/04/04 10:09:47;;;;;;;4.57;2.28;;;7.70;6.40;;;;;;5071943;28;20437;-87
2023/04/04 10:12:13;;;;;;;2.60;1.90;;;7.80;5.10;;;;;;5072057;28;20376;-87
2023/04/04 10:14:39;;;;;;;2.60;2.10;;;7.70;6.50;;;;;;5076701;28;20429;-87
2023/04/04 10:17:08;;;;;;;2.60;2.20;;;7.70;5.90;;;;;;5073671;28;20389;-89
2023/04/04 10:19:38;;;;;;;2.65;2.40;;;7.60;4.80;;;;;;5071940;28;20454;-87
2023/04/04 10:22:04;;;;;;;2.20;2.00;;;7.70;6.20;;;;;;5071958;28;20430;-87
2023/04/04 10:24:31;;;;;;;3.53;2.50;;;7.50;4.60;;;;;;5071848;28;20379;-87
2023/04/04 10:26:56;;;;;;;2.43;2.07;;;7.70;2.80;;;;;;5070677;28;20476;-87
2023/04/04 10:29:23;;;;;;;2.00;1.70;;;7.90;5.50;;;;;;5071829;28;20383;-87
2023/04/04 10:31:58;;;;;;;3.00;2.17;;;7.90;3.70;;;;;;5071828;28;20495;-87
2023/04/04 10:34:37;;;;;;;2.40;2.20;;;8.40;6.70;;;;;;5072138;28;20384;-87
2023/04/04 10:37:11;;;;;;;3.30;2.10;;;8.20;2.20;;;;;;5072301;28;20387;-87
2023/04/04 10:39:45;;;;;;;3.47;1.80;;;8.10;1.90;;;;;;5071314;28;20392;-85
2023/04/04 10:42:14;;;;;;;3.97;2.10;;;8.30;3.40;;;;;;5072456;28;20449;-87
2023/04/04 10:44:40;;;;;;;3.72;2.30;;;8.70;4.80;;;;;;5057786;28;20912;-87
2023/04/04 10:47:20;;;;;;;2.27;1.90;;;9.10;4.80;;;;;;5067089;28;20415;-86
2023/04/04 10:49:47;;;;;;;2.20;2.00;;;9.30;3.50;;;;;;5066144;28;20477;-85
2023/04/04 10:52:14;;;;;;;3.10;2.20;;;9.10;1.60;;;;;;5060328;28;20407;-84
2023/04/04 10:54:42;;;;;;;4.47;2.05;;;9.20;1.00;;;;;;5066131;28;20957;-84
2023/04/04 10:57:09;;;;;;;4.23;2.10;;;9.40;1.00;;;;;;5055224;28;20407;-85
2023/04/04 11:00:09;;;;;;;2.40;2.00;;;9.70;1.00;;;;;;5085395;28;20372;-86
2023/04/04 11:02:47;;;;;;;2.93;1.70;;;9.80;1.00;;;;;;5080967;28;20396;-85
2023/04/04 11:05:29;;;;;;;3.40;2.00;;;9.80;1.00;;;;;;5074451;28;20393;-86
2023/04/04 11:08:03;;;;;;;2.00;1.70;;;10.10;1.00;;;;;;5067554;28;20389;-85
2023/04/04 11:10:56;;;;;;;2.10;1.90;;;10.20;1.00;;;;;;5063848;28;20901;-86
2023/04/04 11:13:34;;;;;;;2.53;1.77;;;10.30;1.00;;;;;;5056187;28;20796;-85
2023/04/04 11:16:00;;;;;;;2.10;1.80;;;10.70;1.00;;;;;;5065103;28;20393;-85
2023/04/04 11:18:41;;;;;;;3.08;1.95;;;10.70;1.00;;;;;;5063090;28;20902;-85
2023/04/04 11:21:07;;;;;;;3.05;1.60;;;11.10;1.00;;;;;;5055894;28;20436;-85
2023/04/04 11:23:47;;;;;;;3.67;1.90;;;11.60;1.00;;;;;;5071325;28;20433;-85
2023/04/04 11:26:17;;;;;;;2.30;2.00;;;11.70;1.00;;;;;;5062120;28;20396;-86
2023/04/04 11:28:44;;;;;;;1.70;1.60;;;12.20;1.00;;;;;;5073510;28;20881;-85
2023/04/04 11:31:22;;;;;;;2.55;1.95;;;12.00;1.00;;;;;;5073793;28;20384;-86
2023/04/04 11:34:08;;;;;;;2.58;2.30;;;12.30;1.00;;;;;;5063821;28;20455;-86
2023/04/04 11:36:36;;;;;;;2.08;1.80;;;12.90;1.00;;;;;;5068636;28;20458;-86
2023/04/04 11:39:08;;;;;;;2.50;1.87;;;13.80;1.00;;;;;;5053542;28;20393;-88
2023/04/04 11:41:47;;;;;;;1.77;1.50;;;14.80;1.00;;;;;;5054875;28;20517;-86
2023/04/04 11:44:14;;;;;;;1.90;1.80;;;14.20;1.00;;;;;;5061628;28;20747;-87
2023/04/04 11:46:41;;;;;;;2.38;2.00;;;14.60;1.00;;;;;;5060249;28;20884;-86
2023/04/04 11:49:06;;;;;;;1.95;1.77;;;15.50;1.00;;;;;;5049977;28;20424;-87
2023/04/04 11:51:32;;;;;;;1.70;1.60;;;14.70;1.00;;;;;;5065960;28;20424;-87
2023/04/04 11:53:58;;;;;;;1.60;1.50;;;16.30;1.00;;;;;;5056932;28;20384;-86
2023/04/04 11:56:24;;;;;;;2.67;1.90;;;16.20;1.00;;;;;;5058973;28;20405;-86
2023/04/04 11:58:50;;;;;;;2.25;1.80;;;16.10;1.00;;;;;;5064311;28;20376;-87
2023/04/04 12:01:18;;;;;;;2.08;1.50;;;15.80;1.00;;;;;;5065731;28;20472;-86
2023/04/04 12:03:43;;;;;;;2.67;1.77;;;17.50;1.00;;;;;;5049667;28;20470;-87
2023/04/04 12:06:10;;;;;;;2.30;1.70;;;16.50;1.00;;;;;;5049480;28;20441;-87
2023/04/04 12:08:38;;;;;;;2.17;1.50;;;16.30;1.00;;;;;;5049802;28;20393;-86
2023/04/04 12:11:10;;;;;;;2.10;1.90;;;16.30;1.00;;;;;;5050786;28;20858;-88
2023/04/04 12:13:43;;;;;;;2.00;1.60;;;16.00;1.00;;;;;;5060800;28;20521;-87
2023/04/04 12:16:09;;;;;;;1.73;1.60;;;16.10;1.00;;;;;;5070391;28;20376;-87
2023/04/04 12:18:36;;;;;;;1.90;1.60;;;15.40;1.00;;;;;;5070666;28;20883;-87
2023/04/04 12:21:02;;;;;;;1.90;1.70;;;16.70;1.00;;;;;;5069831;28;20414;-87
2023/04/04 12:23:33;;;;;;;1.80;1.60;;;16.30;1.00;;;;;;5064831;28;20413;-88
2023/04/04 12:26:00;;;;;;;2.10;1.70;;;17.40;1.00;;;;;;5049890;28;20388;-87
2023/04/04 12:28:26;;;;;;;1.70;1.60;;;15.50;1.00;;;;;;5057016;28;20381;-88
2023/04/04 12:30:52;;;;;;;2.67;1.60;;;16.10;1.00;;;;;;5053106;28;20388;-87
2023/04/04 12:33:17;;;;;;;2.10;1.77;;;16.10;1.00;;;;;;5049513;28;20480;-88
2023/04/04 12:35:51;;;;;;;1.80;1.60;;;15.00;1.00;;;;;;5050619;28;20902;-87
2023/04/04 12:38:17;;;;;;;2.20;2.00;;;16.60;1.00;;;;;;5051045;28;20381;-87
2023/04/04 12:40:43;;;;;;;2.17;1.98;;;16.20;1.00;;;;;;5049760;28;20385;-87
2023/04/04 12:43:16;;;;;;;1.95;1.75;;;15.70;1.00;;;;;;5053168;28;20416;-87
2023/04/04 12:45:43;;;;;;;2.30;1.70;;;14.50;1.00;;;;;;5055172;28;20386;-88
2023/04/04 12:48:11;;;;;;;2.58;1.80;;;15.40;1.00;;;;;;5051553;28;20405;-85
2023/04/04 12:50:50;;;;;;;1.90;1.52;;;16.60;1.00;;;;;;5054984;28;20413;-85
2023/04/04 12:53:17;;;;;;;2.65;1.70;;;15.40;1.00;;;;;;5061848;28;20385;-85
2023/04/04 12:55:48;;;;;;;2.05;1.80;;;16.40;1.00;;;;;;5079134;28;20413;-86
2023/04/04 12:58:19;;;;;;;2.10;1.90;;;16.70;1.00;;;;;;5078966;28;20397;-86